sensor_id;sensor_type;location;lat;lon;timestamp;P1;durP1;ratioP1;P2;durP2;ratioP2
24447;SDS011;13348;50.984;5.822;2022-08-30T00:01:08;7.88;;;4.40;;
24447;SDS011;13348;50.984;5.822;2022-08-30T00:03:37;9.70;;;3.90;;
24447;SDS011;13348;50.984;5.822;2022-08-30T00:06:08;6.90;;;3.65;;
24447;SDS011;13348;50.984;5.822;2022-08-30T00:08:35;4.82;;;3.72;;
24447;SDS011;13348;50.984;5.822;2022-08-30T00:11:07;6.35;;;3.70;;
24447;SDS011;13348;50.984;5.822;2022-08-30T00:13:36;4.85;;;3.90;;
24447;SDS011;13348;50.984;5.822;2022-08-30T00:16:05;7.60;;;4.03;;
24447;SDS011;13348;50.984;5.822;2022-08-30T00:18:32;6.53;;;3.42;;
24447;SDS011;13348;50.984;5.822;2022-08-30T00:21:00;6.70;;;3.60;;
24447;SDS011;13348;50.984;5.822;2022-08-30T00:23:28;5.82;;;3.58;;
24447;SDS011;13348;50.984;5.822;2022-08-30T00:25:56;4.22;;;3.30;;
24447;SDS011;13348;50.984;5.822;2022-08-30T00:28:25;4.50;;;3.30;;
24447;SDS011;13348;50.984;5.822;2022-08-30T00:30:52;8.98;;;3.60;;
24447;SDS011;13348;50.984;5.822;2022-08-30T00:33:20;7.93;;;3.60;;
24447;SDS011;13348;50.984;5.822;2022-08-30T00:35:48;7.10;;;3.90;;
24447;SDS011;13348;50.984;5.822;2022-08-30T00:38:15;3.58;;;3.08;;
24447;SDS011;13348;50.984;5.822;2022-08-30T00:40:43;8.70;;;3.45;;
24447;SDS011;13348;50.984;5.822;2022-08-30T00:43:13;5.25;;;3.30;;
24447;SDS011;13348;50.984;5.822;2022-08-30T00:45:45;7.63;;;3.65;;
24447;SDS011;13348;50.984;5.822;2022-08-30T00:48:12;10.23;;;3.83;;
24447;SDS011;13348;50.984;5.822;2022-08-30T00:50:41;7.35;;;3.83;;
24447;SDS011;13348;50.984;5.822;2022-08-30T00:53:11;3.85;;;3.38;;
24447;SDS011;13348;50.984;5.822;2022-08-30T00:55:41;4.82;;;3.92;;
24447;SDS011;13348;50.984;5.822;2022-08-30T00:58:10;6.05;;;3.35;;
24447;SDS011;13348;50.984;5.822;2022-08-30T01:00:44;7.25;;;4.25;;
24447;SDS011;13348;50.984;5.822;2022-08-30T01:03:13;9.68;;;4.13;;
24447;SDS011;13348;50.984;5.822;2022-08-30T01:05:40;6.82;;;4.28;;
24447;SDS011;13348;50.984;5.822;2022-08-30T01:08:09;9.00;;;3.95;;
24447;SDS011;13348;50.984;5.822;2022-08-30T01:10:36;10.40;;;4.47;;
24447;SDS011;13348;50.984;5.822;2022-08-30T01:13:04;5.60;;;3.75;;
24447;SDS011;13348;50.984;5.822;2022-08-30T01:15:31;10.82;;;4.55;;
24447;SDS011;13348;50.984;5.822;2022-08-30T01:18:01;11.75;;;4.82;;
24447;SDS011;13348;50.984;5.822;2022-08-30T01:20:30;7.55;;;4.07;;
24447;SDS011;13348;50.984;5.822;2022-08-30T01:23:07;6.60;;;3.88;;
24447;SDS011;13348;50.984;5.822;2022-08-30T01:25:37;6.05;;;3.92;;
24447;SDS011;13348;50.984;5.822;2022-08-30T01:28:07;8.82;;;4.47;;
24447;SDS011;13348;50.984;5.822;2022-08-30T01:30:37;7.95;;;4.72;;
24447;SDS011;13348;50.984;5.822;2022-08-30T01:33:05;12.25;;;4.22;;
24447;SDS011;13348;50.984;5.822;2022-08-30T01:35:34;7.82;;;4.40;;
24447;SDS011;13348;50.984;5.822;2022-08-30T01:38:09;8.70;;;4.82;;
24447;SDS011;13348;50.984;5.822;2022-08-30T01:40:38;6.70;;;4.20;;
24447;SDS011;13348;50.984;5.822;2022-08-30T01:43:05;12.27;;;4.85;;
24447;SDS011;13348;50.984;5.822;2022-08-30T01:45:33;7.72;;;4.30;;
24447;SDS011;13348;50.984;5.822;2022-08-30T01:48:00;7.90;;;4.15;;
24447;SDS011;13348;50.984;5.822;2022-08-30T01:50:28;5.60;;;4.05;;
24447;SDS011;13348;50.984;5.822;2022-08-30T01:52:55;9.38;;;4.78;;
24447;SDS011;13348;50.984;5.822;2022-08-30T01:55:24;8.88;;;4.50;;
24447;SDS011;13348;50.984;5.822;2022-08-30T01:57:51;7.03;;;4.63;;
24447;SDS011;13348;50.984;5.822;2022-08-30T02:00:18;8.73;;;4.13;;
24447;SDS011;13348;50.984;5.822;2022-08-30T02:02:45;6.18;;;4.47;;
24447;SDS011;13348;50.984;5.822;2022-08-30T02:05:13;7.70;;;4.63;;
24447;SDS011;13348;50.984;5.822;2022-08-30T02:07:40;7.18;;;4.75;;
24447;SDS011;13348;50.984;5.822;2022-08-30T02:10:07;8.50;;;4.57;;
24447;SDS011;13348;50.984;5.822;2022-08-30T02:12:37;8.35;;;4.95;;
24447;SDS011;13348;50.984;5.822;2022-08-30T02:15:04;8.38;;;4.63;;
24447;SDS011;13348;50.984;5.822;2022-08-30T02:17:34;8.77;;;4.35;;
24447;SDS011;13348;50.984;5.822;2022-08-30T02:20:01;5.43;;;3.70;;
24447;SDS011;13348;50.984;5.822;2022-08-30T02:22:29;6.72;;;4.30;;
24447;SDS011;13348;50.984;5.822;2022-08-30T02:24:57;5.63;;;4.72;;
24447;SDS011;13348;50.984;5.822;2022-08-30T02:27:25;9.27;;;4.55;;
24447;SDS011;13348;50.984;5.822;2022-08-30T02:29:54;9.38;;;4.97;;
24447;SDS011;13348;50.984;5.822;2022-08-30T02:32:21;7.72;;;4.88;;
24447;SDS011;13348;50.984;5.822;2022-08-30T02:34:48;7.05;;;4.88;;
24447;SDS011;13348;50.984;5.822;2022-08-30T02:37:15;8.98;;;5.07;;
24447;SDS011;13348;50.984;5.822;2022-08-30T02:39:42;7.28;;;4.50;;
24447;SDS011;13348;50.984;5.822;2022-08-30T02:42:09;5.38;;;4.57;;
24447;SDS011;13348;50.984;5.822;2022-08-30T02:44:36;5.72;;;4.70;;
24447;SDS011;13348;50.984;5.822;2022-08-30T02:47:05;12.68;;;5.10;;
24447;SDS011;13348;50.984;5.822;2022-08-30T02:49:32;7.55;;;4.57;;
24447;SDS011;13348;50.984;5.822;2022-08-30T02:51:59;7.25;;;4.88;;
24447;SDS011;13348;50.984;5.822;2022-08-30T02:54:28;5.70;;;4.57;;
24447;SDS011;13348;50.984;5.822;2022-08-30T02:56:57;7.68;;;4.55;;
24447;SDS011;13348;50.984;5.822;2022-08-30T02:59:24;9.52;;;4.28;;
24447;SDS011;13348;50.984;5.822;2022-08-30T03:05:15;10.85;;;5.10;;
24447;SDS011;13348;50.984;5.822;2022-08-30T03:07:43;4.60;;;4.20;;
24447;SDS011;13348;50.984;5.822;2022-08-30T03:10:11;7.25;;;4.57;;
24447;SDS011;13348;50.984;5.822;2022-08-30T03:12:39;6.32;;;4.60;;
24447;SDS011;13348;50.984;5.822;2022-08-30T03:15:07;7.15;;;4.90;;
24447;SDS011;13348;50.984;5.822;2022-08-30T03:17:36;5.45;;;4.85;;
24447;SDS011;13348;50.984;5.822;2022-08-30T03:20:04;7.55;;;4.85;;
24447;SDS011;13348;50.984;5.822;2022-08-30T03:22:33;6.43;;;5.05;;
24447;SDS011;13348;50.984;5.822;2022-08-30T03:25:00;7.22;;;5.03;;
24447;SDS011;13348;50.984;5.822;2022-08-30T03:27:28;8.52;;;5.15;;
24447;SDS011;13348;50.984;5.822;2022-08-30T03:29:55;7.10;;;4.90;;
24447;SDS011;13348;50.984;5.822;2022-08-30T03:32:22;6.15;;;4.80;;
24447;SDS011;13348;50.984;5.822;2022-08-30T03:34:49;7.50;;;5.07;;
24447;SDS011;13348;50.984;5.822;2022-08-30T03:37:16;6.55;;;4.95;;
24447;SDS011;13348;50.984;5.822;2022-08-30T03:39:45;10.63;;;5.22;;
24447;SDS011;13348;50.984;5.822;2022-08-30T03:42:12;7.00;;;5.07;;
24447;SDS011;13348;50.984;5.822;2022-08-30T03:44:40;6.60;;;4.93;;
24447;SDS011;13348;50.984;5.822;2022-08-30T03:47:07;8.43;;;4.95;;
24447;SDS011;13348;50.984;5.822;2022-08-30T03:49:34;10.30;;;5.30;;
24447;SDS011;13348;50.984;5.822;2022-08-30T03:52:01;7.82;;;5.05;;
24447;SDS011;13348;50.984;5.822;2022-08-30T03:54:29;6.80;;;5.13;;
24447;SDS011;13348;50.984;5.822;2022-08-30T03:56:58;8.15;;;5.05;;
24447;SDS011;13348;50.984;5.822;2022-08-30T03:59:25;10.15;;;5.57;;
24447;SDS011;13348;50.984;5.822;2022-08-30T04:01:52;6.82;;;4.72;;
24447;SDS011;13348;50.984;5.822;2022-08-30T04:04:19;9.23;;;5.40;;
24447;SDS011;13348;50.984;5.822;2022-08-30T04:06:46;6.40;;;5.32;;
24447;SDS011;13348;50.984;5.822;2022-08-30T04:09:14;8.13;;;5.30;;
24447;SDS011;13348;50.984;5.822;2022-08-30T04:11:41;7.80;;;4.65;;
24447;SDS011;13348;50.984;5.822;2022-08-30T04:14:09;9.32;;;5.57;;
24447;SDS011;13348;50.984;5.822;2022-08-30T04:16:36;5.70;;;4.68;;
24447;SDS011;13348;50.984;5.822;2022-08-30T04:19:04;7.60;;;5.55;;
24447;SDS011;13348;50.984;5.822;2022-08-30T04:21:31;8.77;;;5.32;;
24447;SDS011;13348;50.984;5.822;2022-08-30T04:23:58;7.90;;;5.32;;
24447;SDS011;13348;50.984;5.822;2022-08-30T04:26:25;6.15;;;5.55;;
24447;SDS011;13348;50.984;5.822;2022-08-30T04:28:52;8.88;;;5.65;;
24447;SDS011;13348;50.984;5.822;2022-08-30T04:31:21;8.05;;;5.55;;
24447;SDS011;13348;50.984;5.822;2022-08-30T04:33:48;7.85;;;6.10;;
24447;SDS011;13348;50.984;5.822;2022-08-30T04:36:15;8.90;;;5.72;;
24447;SDS011;13348;50.984;5.822;2022-08-30T04:38:42;11.35;;;6.05;;
24447;SDS011;13348;50.984;5.822;2022-08-30T04:41:10;8.38;;;5.72;;
24447;SDS011;13348;50.984;5.822;2022-08-30T04:46:08;12.57;;;6.43;;
24447;SDS011;13348;50.984;5.822;2022-08-30T04:48:37;7.22;;;5.93;;
24447;SDS011;13348;50.984;5.822;2022-08-30T04:51:04;8.23;;;5.38;;
24447;SDS011;13348;50.984;5.822;2022-08-30T04:53:32;10.63;;;6.00;;
24447;SDS011;13348;50.984;5.822;2022-08-30T04:56:00;7.63;;;6.25;;
24447;SDS011;13348;50.984;5.822;2022-08-30T04:58:32;7.82;;;5.75;;
24447;SDS011;13348;50.984;5.822;2022-08-30T05:00:59;6.50;;;5.82;;
24447;SDS011;13348;50.984;5.822;2022-08-30T05:03:26;6.40;;;5.50;;
24447;SDS011;13348;50.984;5.822;2022-08-30T05:05:55;7.85;;;5.93;;
24447;SDS011;13348;50.984;5.822;2022-08-30T05:08:22;9.85;;;5.53;;
24447;SDS011;13348;50.984;5.822;2022-08-30T05:10:49;9.43;;;5.68;;
24447;SDS011;13348;50.984;5.822;2022-08-30T05:13:18;7.38;;;5.38;;
24447;SDS011;13348;50.984;5.822;2022-08-30T05:15:46;9.93;;;6.57;;
24447;SDS011;13348;50.984;5.822;2022-08-30T05:18:14;10.30;;;6.00;;
24447;SDS011;13348;50.984;5.822;2022-08-30T05:20:41;6.50;;;5.75;;
24447;SDS011;13348;50.984;5.822;2022-08-30T05:23:10;10.98;;;5.72;;
24447;SDS011;13348;50.984;5.822;2022-08-30T05:25:38;10.10;;;6.35;;
24447;SDS011;13348;50.984;5.822;2022-08-30T05:28:07;8.02;;;5.38;;
24447;SDS011;13348;50.984;5.822;2022-08-30T05:30:34;8.77;;;6.03;;
24447;SDS011;13348;50.984;5.822;2022-08-30T05:33:02;6.88;;;6.10;;
24447;SDS011;13348;50.984;5.822;2022-08-30T05:35:30;6.25;;;5.63;;
24447;SDS011;13348;50.984;5.822;2022-08-30T05:37:57;6.85;;;5.80;;
24447;SDS011;13348;50.984;5.822;2022-08-30T05:40:25;6.72;;;5.55;;
24447;SDS011;13348;50.984;5.822;2022-08-30T05:42:52;7.18;;;5.25;;
24447;SDS011;13348;50.984;5.822;2022-08-30T05:45:19;8.55;;;5.40;;
24447;SDS011;13348;50.984;5.822;2022-08-30T05:47:46;9.98;;;5.65;;
24447;SDS011;13348;50.984;5.822;2022-08-30T05:50:14;8.60;;;5.57;;
24447;SDS011;13348;50.984;5.822;2022-08-30T05:52:41;6.28;;;5.45;;
24447;SDS011;13348;50.984;5.822;2022-08-30T05:55:10;5.97;;;5.38;;
24447;SDS011;13348;50.984;5.822;2022-08-30T05:57:38;5.93;;;5.22;;
24447;SDS011;13348;50.984;5.822;2022-08-30T06:00:07;7.85;;;5.72;;
24447;SDS011;13348;50.984;5.822;2022-08-30T06:02:36;6.60;;;5.40;;
24447;SDS011;13348;50.984;5.822;2022-08-30T06:05:03;9.50;;;5.97;;
24447;SDS011;13348;50.984;5.822;2022-08-30T06:07:30;11.13;;;5.68;;
24447;SDS011;13348;50.984;5.822;2022-08-30T06:09:57;6.38;;;5.40;;
24447;SDS011;13348;50.984;5.822;2022-08-30T06:12:25;8.15;;;5.32;;
24447;SDS011;13348;50.984;5.822;2022-08-30T06:14:53;6.32;;;5.22;;
24447;SDS011;13348;50.984;5.822;2022-08-30T06:17:20;9.73;;;5.57;;
24447;SDS011;13348;50.984;5.822;2022-08-30T06:19:48;7.22;;;5.13;;
24447;SDS011;13348;50.984;5.822;2022-08-30T06:22:15;7.95;;;5.43;;
24447;SDS011;13348;50.984;5.822;2022-08-30T06:24:42;6.10;;;5.50;;
24447;SDS011;13348;50.984;5.822;2022-08-30T06:27:09;8.57;;;5.18;;
24447;SDS011;13348;50.984;5.822;2022-08-30T06:29:36;8.80;;;4.78;;
24447;SDS011;13348;50.984;5.822;2022-08-30T06:32:04;5.15;;;4.35;;
24447;SDS011;13348;50.984;5.822;2022-08-30T06:34:32;5.53;;;4.90;;
24447;SDS011;13348;50.984;5.822;2022-08-30T06:36:59;7.47;;;5.10;;
24447;SDS011;13348;50.984;5.822;2022-08-30T06:39:26;9.90;;;5.20;;
24447;SDS011;13348;50.984;5.822;2022-08-30T06:41:53;10.30;;;5.03;;
24447;SDS011;13348;50.984;5.822;2022-08-30T06:44:20;6.07;;;4.75;;
24447;SDS011;13348;50.984;5.822;2022-08-30T06:46:47;6.18;;;4.68;;
24447;SDS011;13348;50.984;5.822;2022-08-30T06:49:15;6.80;;;5.40;;
24447;SDS011;13348;50.984;5.822;2022-08-30T06:51:42;6.85;;;4.70;;
24447;SDS011;13348;50.984;5.822;2022-08-30T06:54:09;6.22;;;5.25;;
24447;SDS011;13348;50.984;5.822;2022-08-30T06:56:37;6.05;;;4.70;;
24447;SDS011;13348;50.984;5.822;2022-08-30T06:59:05;6.80;;;4.70;;
24447;SDS011;13348;50.984;5.822;2022-08-30T07:01:32;8.88;;;5.22;;
24447;SDS011;13348;50.984;5.822;2022-08-30T07:03:59;6.22;;;4.93;;
24447;SDS011;13348;50.984;5.822;2022-08-30T07:06:27;6.53;;;4.45;;
24447;SDS011;13348;50.984;5.822;2022-08-30T07:08:55;5.60;;;4.93;;
24447;SDS011;13348;50.984;5.822;2022-08-30T07:11:26;8.48;;;5.15;;
24447;SDS011;13348;50.984;5.822;2022-08-30T07:13:56;6.57;;;5.07;;
24447;SDS011;13348;50.984;5.822;2022-08-30T07:16:23;5.80;;;4.40;;
24447;SDS011;13348;50.984;5.822;2022-08-30T07:18:51;5.57;;;4.97;;
24447;SDS011;13348;50.984;5.822;2022-08-30T07:21:21;7.07;;;4.32;;
24447;SDS011;13348;50.984;5.822;2022-08-30T07:23:51;6.20;;;4.68;;
24447;SDS011;13348;50.984;5.822;2022-08-30T07:26:20;5.03;;;4.53;;
24447;SDS011;13348;50.984;5.822;2022-08-30T07:28:49;8.90;;;4.82;;
24447;SDS011;13348;50.984;5.822;2022-08-30T07:31:17;7.22;;;4.70;;
24447;SDS011;13348;50.984;5.822;2022-08-30T07:33:44;5.80;;;4.57;;
24447;SDS011;13348;50.984;5.822;2022-08-30T07:36:12;4.35;;;3.95;;
24447;SDS011;13348;50.984;5.822;2022-08-30T07:38:41;6.80;;;4.50;;
24447;SDS011;13348;50.984;5.822;2022-08-30T07:41:14;4.90;;;4.15;;
24447;SDS011;13348;50.984;5.822;2022-08-30T07:43:43;8.27;;;4.55;;
24447;SDS011;13348;50.984;5.822;2022-08-30T07:46:10;8.13;;;4.18;;
24447;SDS011;13348;50.984;5.822;2022-08-30T07:48:37;6.78;;;4.22;;
24447;SDS011;13348;50.984;5.822;2022-08-30T07:51:07;7.20;;;4.25;;
24447;SDS011;13348;50.984;5.822;2022-08-30T07:53:36;9.88;;;4.03;;
24447;SDS011;13348;50.984;5.822;2022-08-30T07:56:03;6.35;;;4.10;;
24447;SDS011;13348;50.984;5.822;2022-08-30T07:58:31;6.47;;;3.33;;
